createdAt,value
2023-01-13T00:00:01.217Z,0.17500000000000002
2023-01-13T00:05:01.231Z,0.035
2023-01-13T00:10:01.219Z,0
2023-01-13T00:15:01.294Z,0
2023-01-13T00:20:01.395Z,0.076
2023-01-13T00:25:01.319Z,0.11
2023-01-13T00:30:01.334Z,0.11
2023-01-13T00:35:01.408Z,0.12
2023-01-13T00:40:01.446Z,0.154
2023-01-13T00:45:01.422Z,0.164
2023-01-13T00:50:01.397Z,0.16
2023-01-13T00:55:01.470Z,0.121
2023-01-13T01:00:01.281Z,0.069
2023-01-13T01:05:01.397Z,0
2023-01-13T01:10:01.341Z,0
2023-01-13T01:15:01.315Z,0
2023-01-13T01:20:01.301Z,0.062
2023-01-13T01:25:01.286Z,0.167
2023-01-13T01:30:01.337Z,0.171
2023-01-13T01:35:01.339Z,0.17300000000000001
2023-01-13T01:40:01.303Z,0.127
2023-01-13T01:45:01.345Z,0.124
2023-01-13T01:50:01.304Z,0.121
2023-01-13T01:55:01.338Z,0.11800000000000001
2023-01-13T02:00:01.338Z,0.122
2023-01-13T02:05:01.328Z,0.117
2023-01-13T02:10:01.304Z,0.084
2023-01-13T02:15:01.367Z,0
2023-01-13T02:20:01.369Z,0
2023-01-13T02:25:01.355Z,0.052000000000000005
2023-01-13T02:30:01.354Z,0.10300000000000001
2023-01-13T02:35:01.512Z,0.106
2023-01-13T02:40:01.427Z,0.108
2023-01-13T02:45:01.558Z,0.107
2023-01-13T02:50:01.570Z,0.108
2023-01-13T02:55:01.521Z,0.152
2023-01-13T03:00:01.540Z,0.17200000000000001
2023-01-13T03:05:01.535Z,0.171
2023-01-13T03:10:01.394Z,0.08700000000000001
2023-01-13T03:15:01.429Z,0.003
2023-01-13T03:20:01.446Z,0.002
2023-01-13T03:25:01.350Z,0
2023-01-13T03:30:01.367Z,0
2023-01-13T03:35:01.375Z,0.069
2023-01-13T03:40:01.421Z,0.133
2023-01-13T03:45:01.406Z,0.159
2023-01-13T03:50:01.510Z,0.161
2023-01-13T03:55:01.460Z,0.139
2023-01-13T04:00:01.452Z,0.109
2023-01-13T04:05:01.428Z,0.10300000000000001
2023-01-13T04:10:02.056Z,0.106
2023-01-13T04:15:01.444Z,0.111
2023-01-13T04:20:01.620Z,0.122
2023-01-13T04:25:01.486Z,0.037
2023-01-13T04:30:01.457Z,0
2023-01-13T04:35:01.492Z,0
2023-01-13T04:40:01.434Z,0.024
2023-01-13T04:45:01.493Z,0.105
2023-01-13T04:50:01.491Z,0.11
2023-01-13T04:55:01.497Z,0.113
2023-01-13T05:00:01.820Z,0.124
2023-01-13T05:05:01.598Z,0.115
2023-01-13T05:10:01.592Z,0.122
2023-01-13T05:15:01.730Z,0.17400000000000002
2023-01-13T05:20:01.637Z,0.17400000000000002
2023-01-13T05:25:01.629Z,0.014
2023-01-13T05:30:01.671Z,0
2023-01-13T05:35:01.636Z,0
2023-01-13T05:40:01.707Z,0
2023-01-13T05:45:01.537Z,0
2023-01-13T05:50:01.538Z,0.012
2023-01-13T05:55:01.544Z,0.057
2023-01-13T06:00:01.545Z,0.091
2023-01-13T06:05:01.544Z,0.084
2023-01-13T06:10:01.542Z,0.044
2023-01-13T06:15:01.608Z,0.23700000000000002
2023-01-13T06:20:01.546Z,0.065
2023-01-13T06:25:01.596Z,0.039
2023-01-13T06:30:01.565Z,0.029
2023-01-13T06:35:02.409Z,0
2023-01-13T06:40:01.587Z,0.002
2023-01-13T06:45:01.584Z,0.001
2023-01-13T06:50:01.614Z,0.001
2023-01-13T06:55:01.627Z,0
2023-01-13T07:00:01.582Z,0.021
2023-01-13T07:05:01.573Z,0.084
2023-01-13T07:10:01.597Z,0.281
2023-01-13T07:15:01.652Z,0.092
2023-01-13T07:20:01.657Z,0.096
2023-01-13T07:25:01.628Z,0.097
2023-01-13T07:30:01.723Z,0.116
2023-01-13T07:35:01.757Z,0.033
2023-01-13T07:40:01.741Z,9.36
2023-01-13T07:45:01.905Z,25.900000000000002
2023-01-13T07:50:01.764Z,16.024
2023-01-13T07:55:01.606Z,48.308
2023-01-13T08:00:01.673Z,97.431
2023-01-13T08:05:01.637Z,146.671
2023-01-13T08:10:01.636Z,206.044
2023-01-13T08:15:01.688Z,270.17
2023-01-13T08:20:01.651Z,365.754
2023-01-13T08:25:01.798Z,468.94
2023-01-13T08:30:01.647Z,550.491
2023-01-13T08:35:01.653Z,604.554
2023-01-13T08:40:01.652Z,711.818
2023-01-13T08:45:01.727Z,727.196
2023-01-13T08:50:01.671Z,815.729
2023-01-13T08:55:01.762Z,807.1990000000001
2023-01-13T09:00:01.723Z,990.534
2023-01-13T09:05:01.651Z,1384.631
2023-01-13T09:10:01.743Z,1390.532
2023-01-13T09:15:01.694Z,1858.921
2023-01-13T09:20:01.710Z,2121.088
2023-01-13T09:25:01.796Z,2303.739
2023-01-13T09:30:01.768Z,2268.714
2023-01-13T09:35:02.020Z,2358.483
2023-01-13T09:40:01.818Z,3085.065
2023-01-13T09:45:01.887Z,3349.945
2023-01-13T09:50:01.877Z,3656.4320000000002
2023-01-13T09:55:01.858Z,3364.636
2023-01-13T10:00:01.753Z,3536.6240000000003
2023-01-13T10:05:01.869Z,3654.438
2023-01-13T10:10:01.743Z,1880.0230000000001
2023-01-13T10:15:01.756Z,1021.0160000000001
2023-01-13T10:20:01.759Z,722.515
2023-01-13T10:25:01.723Z,907.2950000000001
2023-01-13T10:30:02.050Z,2007.92
2023-01-13T10:35:01.772Z,2680.4900000000002
2023-01-13T10:40:01.787Z,2963.2490000000003
2023-01-13T10:45:01.787Z,1984.72
2023-01-13T10:50:01.842Z,2820.943
2023-01-13T10:55:01.863Z,1899.905
2023-01-13T11:00:01.812Z,1378.613
2023-01-13T11:05:01.896Z,741.11
2023-01-13T11:10:01.785Z,2096.127
2023-01-13T11:15:01.811Z,2186.194
2023-01-13T11:20:01.887Z,1396.592
2023-01-13T11:25:01.936Z,1268.144
2023-01-13T11:30:01.946Z,1166.571
2023-01-13T11:35:01.974Z,1582.1870000000001
2023-01-13T11:40:01.990Z,3062.661
2023-01-13T11:45:01.812Z,2050.792
2023-01-13T11:50:01.863Z,1250.982
2023-01-13T11:55:01.807Z,806.763
2023-01-13T12:00:01.879Z,680.7470000000001
2023-01-13T12:05:01.834Z,688.326
2023-01-13T12:10:03.426Z,743.11
2023-01-13T12:15:01.873Z,837.682
2023-01-13T12:20:01.928Z,917.152
2023-01-13T12:25:01.838Z,403.83
2023-01-13T12:30:01.941Z,757.177
2023-01-13T12:35:01.802Z,731.347
2023-01-13T12:40:01.861Z,392.055
2023-01-13T12:45:02.015Z,330.964
2023-01-13T12:50:01.873Z,368.392
2023-01-13T12:55:01.856Z,357.03700000000003
2023-01-13T13:00:01.835Z,232.526
2023-01-13T13:05:01.916Z,214.244
2023-01-13T13:15:03.527Z,304.98900000000003
2023-01-13T13:20:02.128Z,367.814
2023-01-13T13:25:02.028Z,342.445
2023-01-13T13:30:02.065Z,335.01800000000003
2023-01-13T13:35:01.938Z,294.249
2023-01-13T13:40:01.888Z,130.59
2023-01-13T13:45:10.135Z,56.061
2023-01-13T13:50:01.903Z,43.748
2023-01-13T13:55:02.020Z,33.085
2023-01-13T14:00:02.008Z,31.546
2023-01-13T14:05:02.052Z,45.055
2023-01-13T14:10:01.894Z,44.962
2023-01-13T14:15:01.967Z,26.3
2023-01-13T14:20:01.939Z,23.241
2023-01-13T14:25:01.961Z,1.758
2023-01-13T14:30:01.874Z,20.881
2023-01-13T14:35:01.955Z,34.047000000000004
2023-01-13T14:40:01.922Z,23.494
2023-01-13T14:45:02.028Z,18.655
2023-01-13T14:50:01.991Z,5.542
2023-01-13T14:55:02.033Z,0.059000000000000004
2023-01-13T15:00:02.053Z,0
2023-01-13T15:05:01.908Z,0
2023-01-13T15:10:01.896Z,0
2023-01-13T15:15:01.959Z,0.067
2023-01-13T15:20:01.925Z,0.112
2023-01-13T15:25:01.980Z,0.10300000000000001
2023-01-13T15:30:01.940Z,0.081
2023-01-13T15:35:01.949Z,0.078
2023-01-13T15:40:01.917Z,0.074
2023-01-13T15:45:01.976Z,0.061
2023-01-13T15:50:01.970Z,0.062
2023-01-13T15:55:01.920Z,0.055
2023-01-13T16:00:01.995Z,0.01
2023-01-13T16:05:01.996Z,0.015
2023-01-13T16:10:01.943Z,0.011
2023-01-13T16:15:02.077Z,0.027
2023-01-13T16:20:02.078Z,0.026000000000000002
2023-01-13T16:25:02.126Z,0.026000000000000002
2023-01-13T16:30:02.365Z,0.044
2023-01-13T16:35:02.182Z,0.045
2023-01-13T16:40:02.273Z,0.027
2023-01-13T16:45:02.121Z,0.043000000000000003
2023-01-13T16:50:02.079Z,0.044
2023-01-13T16:55:02.141Z,0.056
2023-01-13T17:00:02.103Z,0.234
2023-01-13T17:05:02.140Z,0.878
2023-01-13T17:10:02.151Z,0.107
2023-01-13T17:15:02.280Z,0.154
2023-01-13T17:20:02.189Z,0.153
2023-01-13T17:25:02.127Z,0.24
2023-01-13T17:30:02.180Z,0.181
2023-01-13T17:35:02.275Z,0.026000000000000002
2023-01-13T17:40:02.195Z,0.032
2023-01-13T17:45:02.166Z,0.036000000000000004
2023-01-13T17:50:02.119Z,0.1
2023-01-13T17:55:02.180Z,0.042
2023-01-13T18:00:02.333Z,0.046
2023-01-13T18:05:04.625Z,0.061
2023-01-13T18:10:02.327Z,0.067
2023-01-13T18:15:02.433Z,0.062
2023-01-13T18:20:02.424Z,0.109
2023-01-13T18:25:02.238Z,0.116
2023-01-13T18:30:02.301Z,0.14300000000000002
2023-01-13T18:35:05.894Z,0.115
2023-01-13T18:40:02.353Z,0.081
2023-01-13T18:45:02.176Z,0.058
2023-01-13T18:50:02.157Z,0.052000000000000005
2023-01-13T18:55:02.210Z,0.069
2023-01-13T19:00:02.332Z,0.109
2023-01-13T19:05:02.215Z,0.093
2023-01-13T19:10:02.306Z,0
2023-01-13T19:15:02.295Z,0
2023-01-13T19:20:02.262Z,0
2023-01-13T19:25:02.463Z,0.013000000000000001
2023-01-13T19:30:03.260Z,0.007
2023-01-13T19:35:02.414Z,0.006
2023-01-13T19:40:02.417Z,0.005
2023-01-13T19:45:02.434Z,0.092
2023-01-13T19:50:02.272Z,0.124
2023-01-13T19:55:02.264Z,0.157
2023-01-13T20:00:02.300Z,0.157
2023-01-13T20:05:02.266Z,0.157
2023-01-13T20:10:02.237Z,0.075
2023-01-13T20:15:02.378Z,0.044
2023-01-13T20:20:02.338Z,0.062
2023-01-13T20:25:02.297Z,0.229
2023-01-13T20:30:02.433Z,0.369
2023-01-13T20:35:02.371Z,0.084
2023-01-13T20:40:02.335Z,0.003
2023-01-13T20:45:02.400Z,0
2023-01-13T20:50:02.356Z,0
2023-01-13T20:55:02.323Z,0
2023-01-13T21:00:02.363Z,0
2023-01-13T21:05:02.313Z,0.014
2023-01-13T21:10:02.343Z,0.099
2023-01-13T21:15:02.631Z,0.08700000000000001
2023-01-13T21:20:04.390Z,0.083
2023-01-13T21:25:02.458Z,0.109
2023-01-13T21:30:02.522Z,0.137
2023-01-13T21:35:02.558Z,0.133
2023-01-13T21:40:02.390Z,0.116
2023-01-13T21:45:02.371Z,0.09
2023-01-13T21:50:02.424Z,0.091
2023-01-13T21:55:02.428Z,0.063
2023-01-13T22:00:02.340Z,0
2023-01-13T22:05:02.336Z,0
2023-01-13T22:10:02.566Z,0
2023-01-13T22:15:02.409Z,0
2023-01-13T22:20:02.382Z,0
2023-01-13T22:25:02.410Z,0.255
2023-01-13T22:30:02.366Z,0.27
2023-01-13T22:35:02.400Z,0.275
2023-01-13T22:40:02.378Z,0.15
2023-01-13T22:45:02.430Z,0.116
2023-01-13T22:50:02.482Z,0.111
2023-01-13T22:55:02.603Z,0.111
2023-01-13T23:00:02.591Z,0.147
2023-01-13T23:05:02.569Z,0.16
2023-01-13T23:10:02.588Z,0.013000000000000001
2023-01-13T23:15:02.638Z,0.001
2023-01-13T23:20:02.416Z,0
2023-01-13T23:25:02.466Z,0
2023-01-13T23:30:02.437Z,0
2023-01-13T23:35:02.402Z,0.121
2023-01-13T23:40:02.542Z,0.111
2023-01-13T23:45:02.505Z,0.128
2023-01-13T23:50:02.494Z,0.158
2023-01-13T23:55:02.439Z,0.161
